createdAt,value
2022-09-07T00:01:11.854Z,74.92
2022-09-07T00:03:38.999Z,75.37
2022-09-07T00:06:08.533Z,75.42
2022-09-07T00:08:35.549Z,75.51
2022-09-07T00:11:04.859Z,75.82
2022-09-07T00:13:33.721Z,74.59
2022-09-07T00:16:05.373Z,73.83
2022-09-07T00:18:32.545Z,73.47
2022-09-07T00:21:07.542Z,73.62
2022-09-07T00:23:35.445Z,74.18
2022-09-07T00:26:16.826Z,74.84
2022-09-07T00:28:44.492Z,75.32
2022-09-07T00:31:16.372Z,75.95
2022-09-07T00:33:43.833Z,75.96
2022-09-07T00:36:11.161Z,74.08
2022-09-07T00:38:38.314Z,73.30
2022-09-07T00:41:05.663Z,73.41
2022-09-07T00:43:35.364Z,74.04
2022-09-07T00:46:02.756Z,74.94
2022-09-07T00:48:36.800Z,74.98
2022-09-07T00:51:06.997Z,75.79
2022-09-07T00:53:46.423Z,76.70
2022-09-07T00:56:13.449Z,76.51
2022-09-07T00:58:42.338Z,74.76
2022-09-07T01:01:10.208Z,73.78
2022-09-07T01:03:44.312Z,73.66
2022-09-07T01:06:23.277Z,74.19
2022-09-07T01:08:51.498Z,75.08
2022-09-07T01:11:22.377Z,75.40
2022-09-07T01:13:50.122Z,75.88
2022-09-07T01:16:42.454Z,76.54
2022-09-07T01:19:37.869Z,76.62
2022-09-07T01:22:29.622Z,74.95
2022-09-07T01:25:03.033Z,74.73
2022-09-07T01:27:37.637Z,75.31
2022-09-07T01:30:18.791Z,75.59
2022-09-07T01:33:07.260Z,76.20
2022-09-07T01:36:02.402Z,76.92
2022-09-07T01:38:29.389Z,77.59
2022-09-07T01:41:07.701Z,77.09
2022-09-07T01:43:44.372Z,75.40
2022-09-07T01:46:19.193Z,74.70
2022-09-07T01:48:46.456Z,75.14
2022-09-07T01:51:13.606Z,74.73
2022-09-07T01:53:43.923Z,75.03
2022-09-07T01:56:16.904Z,75.42
2022-09-07T01:59:00.986Z,76.20
2022-09-07T02:01:44.908Z,76.71
2022-09-07T02:04:17.806Z,77.42
2022-09-07T02:07:01.960Z,77.54
2022-09-07T02:09:33.909Z,76.16
2022-09-07T02:12:03.414Z,75.43
2022-09-07T02:14:38.173Z,74.61
2022-09-07T02:17:06.921Z,74.47
2022-09-07T02:19:36.961Z,75.09
2022-09-07T02:22:05.934Z,75.87
2022-09-07T02:24:44.575Z,76.25
2022-09-07T02:27:14.445Z,76.60
2022-09-07T02:29:43.638Z,75.80
2022-09-07T02:32:10.662Z,74.91
2022-09-07T02:34:37.573Z,74.74
2022-09-07T02:37:05.574Z,74.56
2022-09-07T02:39:33.948Z,74.52
2022-09-07T02:42:01.041Z,75.03
2022-09-07T02:44:31.947Z,75.11
2022-09-07T02:47:01.907Z,75.90
2022-09-07T02:49:34.471Z,76.72
2022-09-07T02:52:23.429Z,76.97
2022-09-07T02:55:09.835Z,75.98
2022-09-07T02:58:01.995Z,75.18
2022-09-07T03:00:31.578Z,74.92
2022-09-07T03:03:21.766Z,75.47
2022-09-07T03:06:10.732Z,75.81
2022-09-07T03:08:47.469Z,76.51
2022-09-07T03:11:14.524Z,76.36
2022-09-07T03:13:41.596Z,77.18
2022-09-07T03:16:13.092Z,76.99
2022-09-07T03:18:40.253Z,75.81
2022-09-07T03:21:07.343Z,75.63
2022-09-07T03:23:34.391Z,74.68
2022-09-07T03:26:01.439Z,75.00
2022-09-07T03:28:28.726Z,76.09
2022-09-07T03:30:55.951Z,76.54
2022-09-07T03:33:22.986Z,76.50
2022-09-07T03:36:00.684Z,76.98
2022-09-07T03:38:27.698Z,76.59
2022-09-07T03:41:01.871Z,75.54
2022-09-07T03:43:29.507Z,75.29
2022-09-07T03:45:58.446Z,74.23
2022-09-07T03:48:25.648Z,75.53
2022-09-07T03:50:59.851Z,76.56
2022-09-07T03:53:26.932Z,76.25
2022-09-07T03:55:58.780Z,76.83
2022-09-07T03:58:25.818Z,76.73
2022-09-07T04:00:52.966Z,76.74
2022-09-07T04:03:20.424Z,75.58
2022-09-07T04:05:47.447Z,74.97
2022-09-07T04:08:14.524Z,74.39
2022-09-07T04:10:41.979Z,73.98
2022-09-07T04:13:08.902Z,73.94
2022-09-07T04:15:35.969Z,73.79
2022-09-07T04:18:03.249Z,73.16
2022-09-07T04:20:30.286Z,72.76
2022-09-07T04:22:57.520Z,72.43
2022-09-07T04:25:24.689Z,70.61
2022-09-07T04:27:51.550Z,68.81
2022-09-07T04:30:18.656Z,68.11
2022-09-07T04:32:46.932Z,67.76
2022-09-07T04:35:14.497Z,68.37
2022-09-07T04:37:41.556Z,67.26
2022-09-07T04:40:09.392Z,67.70
2022-09-07T04:42:36.861Z,68.18
2022-09-07T04:45:04.965Z,69.09
2022-09-07T04:47:31.885Z,69.47
2022-09-07T04:49:58.948Z,69.37
2022-09-07T04:52:26.046Z,69.70
2022-09-07T04:54:53.045Z,69.40
2022-09-07T04:57:24.473Z,66.88
2022-09-07T04:59:52.156Z,65.24
2022-09-07T05:02:19.793Z,64.19
2022-09-07T05:04:46.968Z,65.09
2022-09-07T05:07:13.939Z,65.19
2022-09-07T05:09:41.065Z,65.32
2022-09-07T05:12:08.187Z,64.74
2022-09-07T05:14:35.176Z,63.83
2022-09-07T05:17:02.989Z,64.63
2022-09-07T05:19:30.183Z,65.54
2022-09-07T05:21:57.447Z,65.90
2022-09-07T05:24:24.403Z,65.78
2022-09-07T05:26:51.499Z,66.08
2022-09-07T05:32:05.863Z,65.15
2022-09-07T05:34:33.003Z,65.44
2022-09-07T05:37:01.092Z,65.69
2022-09-07T05:39:28.280Z,65.97
2022-09-07T05:41:55.715Z,65.84
2022-09-07T05:47:10.655Z,66.35
2022-09-07T05:49:37.790Z,65.64
2022-09-07T05:52:04.907Z,63.63
2022-09-07T05:54:32.024Z,62.53
2022-09-07T05:56:59.070Z,62.10
2022-09-07T05:59:26.014Z,61.77
2022-09-07T06:01:52.996Z,62.01
2022-09-07T06:04:20.228Z,61.40
2022-09-07T06:07:04.636Z,62.55
2022-09-07T06:09:34.676Z,63.06
2022-09-07T06:12:05.624Z,63.01
2022-09-07T06:14:33.447Z,62.69
2022-09-07T06:17:00.583Z,62.98
2022-09-07T06:19:27.761Z,61.99
2022-09-07T06:21:54.758Z,62.63
2022-09-07T06:24:21.681Z,62.51
2022-09-07T06:26:48.744Z,62.43
2022-09-07T06:29:15.772Z,61.58
2022-09-07T06:34:29.731Z,60.98
2022-09-07T06:36:56.992Z,60.78
2022-09-07T06:39:24.063Z,57.75
2022-09-07T06:44:28.936Z,59.68
2022-09-07T06:47:03.216Z,59.50
2022-09-07T06:49:30.962Z,58.47
2022-09-07T06:51:57.911Z,55.66
2022-09-07T06:57:12.076Z,56.69
2022-09-07T06:59:39.536Z,54.96
2022-09-07T07:02:06.992Z,54.67
2022-09-07T07:04:39.375Z,53.95
2022-09-07T07:07:07.021Z,51.10
2022-09-07T07:09:34.185Z,52.76
2022-09-07T07:12:01.216Z,52.60
2022-09-07T07:14:29.932Z,49.60
2022-09-07T07:16:58.226Z,52.39
2022-09-07T07:19:25.226Z,51.94
2022-09-07T07:24:39.289Z,49.76
2022-09-07T07:27:07.057Z,49.33
2022-09-07T07:29:34.306Z,47.69
2022-09-07T07:32:01.456Z,48.60
2022-09-07T07:34:29.353Z,47.60
2022-09-07T07:36:56.341Z,46.68
2022-09-07T07:42:10.345Z,46.72
2022-09-07T07:44:37.196Z,46.86
2022-09-07T07:47:04.290Z,47.13
2022-09-07T07:49:31.470Z,46.44
2022-09-07T07:54:45.637Z,44.97
2022-09-07T07:57:12.817Z,43.69
2022-09-07T07:59:39.637Z,41.85
2022-09-07T08:02:09.073Z,40.56
2022-09-07T08:04:36.402Z,40.46
2022-09-07T08:07:09.259Z,39.00
2022-09-07T08:09:41.953Z,37.11
2022-09-07T08:12:10.138Z,38.70
2022-09-07T08:14:41.345Z,39.59
2022-09-07T08:17:13.508Z,39.79
2022-09-07T08:19:40.668Z,37.36
2022-09-07T08:22:09.035Z,38.00
2022-09-07T08:24:36.119Z,37.68
2022-09-07T08:27:03.274Z,36.27
2022-09-07T08:29:33.761Z,37.05
2022-09-07T08:35:22.780Z,38.06
2022-09-07T08:37:49.968Z,35.75
2022-09-07T08:40:17.981Z,37.07
2022-09-07T08:43:24.494Z,36.82
2022-09-07T08:45:53.568Z,36.84
2022-09-07T08:48:29.050Z,35.64
2022-09-07T08:51:24.169Z,34.45
2022-09-07T08:53:51.882Z,35.56
2022-09-07T08:56:33.929Z,35.99
2022-09-07T08:59:03.555Z,35.08
2022-09-07T09:01:39.650Z,34.94
2022-09-07T09:04:16.755Z,35.25
2022-09-07T09:07:25.731Z,34.50
2022-09-07T09:10:04.996Z,32.47
2022-09-07T09:12:40.745Z,33.07
2022-09-07T09:15:23.768Z,33.86
2022-09-07T09:18:25.897Z,33.88
2022-09-07T09:20:55.148Z,31.28
2022-09-07T09:23:42.058Z,33.36
2022-09-07T09:26:18.341Z,30.85
2022-09-07T09:28:45.364Z,30.18
2022-09-07T09:31:23.106Z,29.84
2022-09-07T09:34:08.065Z,30.82
2022-09-07T09:36:40.607Z,29.98
2022-09-07T09:39:30.421Z,31.03
2022-09-07T09:42:13.812Z,29.71
2022-09-07T09:44:41.175Z,28.70
2022-09-07T09:47:33.451Z,28.88
2022-09-07T09:52:29.358Z,28.90
2022-09-07T09:53:04.397Z,28.20
2022-09-07T09:55:37.617Z,28.47
2022-09-07T10:04:04.614Z,27.76
2022-09-07T10:06:33.153Z,27.72
2022-09-07T10:09:03.154Z,28.73
2022-09-07T10:14:35.768Z,28.09
2022-09-07T10:17:30.960Z,27.93
2022-09-07T10:20:02.209Z,28.87
2022-09-07T10:22:36.907Z,27.09
2022-09-07T10:25:05.915Z,27.17
2022-09-07T10:27:35.318Z,26.59
2022-09-07T10:30:03.673Z,27.77
2022-09-07T10:32:57.787Z,27.10
2022-09-07T10:35:35.370Z,28.55
2022-09-07T10:38:02.230Z,27.19
2022-09-07T10:40:30.494Z,27.79
2022-09-07T10:43:23.831Z,28.50
2022-09-07T10:46:10.503Z,27.33
2022-09-07T10:48:56.869Z,26.65
2022-09-07T10:51:36.303Z,25.99
2022-09-07T10:54:32.868Z,26.66
2022-09-07T10:57:32.352Z,25.63
2022-09-07T11:00:08.269Z,26.72
2022-09-07T11:03:28.573Z,26.47
2022-09-07T11:06:19.410Z,24.61
2022-09-07T11:09:18.014Z,26.45
2022-09-07T11:12:05.339Z,25.56
2022-09-07T11:14:39.399Z,25.96
2022-09-07T11:17:22.352Z,25.18
2022-09-07T11:20:11.218Z,24.49
2022-09-07T11:22:53.617Z,24.08
2022-09-07T11:25:31.337Z,24.57
2022-09-07T11:28:22.865Z,25.56
2022-09-07T11:30:54.560Z,25.30
2022-09-07T11:33:31.590Z,25.26
2022-09-07T11:36:02.500Z,24.01
2022-09-07T11:38:51.577Z,24.83
2022-09-07T11:41:22.302Z,26.64
2022-09-07T11:44:01.746Z,26.25
2022-09-07T11:46:43.994Z,26.09
2022-09-07T11:49:25.936Z,26.99
2022-09-07T11:51:56.282Z,26.32
2022-09-07T11:54:52.089Z,26.81
2022-09-07T11:57:44.440Z,25.68
2022-09-07T12:00:24.633Z,26.70
2022-09-07T12:03:19.806Z,26.85
2022-09-07T12:05:55.702Z,26.83
2022-09-07T12:08:50.964Z,26.84
2022-09-07T12:11:35.941Z,27.32
2022-09-07T12:14:21.332Z,27.71
2022-09-07T12:16:51.242Z,27.73
2022-09-07T12:19:27.622Z,28.37
2022-09-07T12:21:56.554Z,28.18
2022-09-07T12:24:35.683Z,27.33
2022-09-07T12:27:21.201Z,28.12
2022-09-07T12:30:07.081Z,26.86
2022-09-07T12:32:56.817Z,27.07
2022-09-07T12:35:44.140Z,28.51
2022-09-07T12:38:34.082Z,27.63
2022-09-07T12:41:24.163Z,27.01
2022-09-07T12:44:16.141Z,26.60
2022-09-07T12:47:23.382Z,25.79
2022-09-07T12:50:28.422Z,27.30
2022-09-07T12:53:14.312Z,27.91
2022-09-07T12:58:51.878Z,28.56
2022-09-07T13:01:25.082Z,27.85
2022-09-07T13:04:05.134Z,26.74
2022-09-07T13:07:05.817Z,26.41
2022-09-07T13:09:38.990Z,27.09
2022-09-07T13:15:41.863Z,27.12
2022-09-07T13:18:35.368Z,27.65
2022-09-07T13:21:09.296Z,26.21
2022-09-07T13:23:40.044Z,27.37
2022-09-07T13:26:11.672Z,27.77
2022-09-07T13:28:40.117Z,27.09
2022-09-07T13:31:19.674Z,27.67
2022-09-07T13:33:48.596Z,27.03
2022-09-07T13:36:33.853Z,27.49
2022-09-07T13:39:00.679Z,28.70
2022-09-07T13:41:36.074Z,27.75
2022-09-07T13:44:04.081Z,27.72
2022-09-07T13:46:33.563Z,29.34
2022-09-07T13:49:20.939Z,28.89
2022-09-07T13:51:56.076Z,29.54
2022-09-07T13:54:28.729Z,29.95
2022-09-07T13:57:05.017Z,30.37
2022-09-07T13:59:34.418Z,29.99
2022-09-07T14:02:01.408Z,29.07
2022-09-07T14:04:35.481Z,28.28
2022-09-07T14:07:04.086Z,29.74
2022-09-07T14:09:31.072Z,29.13
2022-09-07T14:11:58.075Z,29.27
2022-09-07T14:14:33.439Z,28.67
2022-09-07T14:17:00.422Z,29.47
2022-09-07T14:19:39.576Z,29.55
2022-09-07T14:22:23.723Z,29.12
2022-09-07T14:24:57.391Z,28.89
2022-09-07T14:27:35.216Z,28.77
2022-09-07T14:30:34.623Z,29.51
2022-09-07T14:33:20.540Z,29.80
2022-09-07T14:35:47.881Z,28.63
2022-09-07T14:41:13.975Z,29.58
2022-09-07T14:43:55.141Z,28.92
2022-09-07T14:46:29.770Z,29.70
2022-09-07T14:49:01.946Z,29.49
2022-09-07T14:51:36.468Z,29.93
2022-09-07T14:54:05.859Z,30.08
2022-09-07T14:56:40.543Z,28.62
2022-09-07T14:59:28.647Z,29.60
2022-09-07T15:02:26.669Z,29.82
2022-09-07T15:05:23.821Z,30.77
2022-09-07T15:08:01.693Z,31.36
2022-09-07T15:10:30.098Z,31.69
2022-09-07T15:12:58.733Z,29.35
2022-09-07T15:15:39.859Z,29.82
2022-09-07T15:18:45.422Z,31.76
2022-09-07T15:21:12.457Z,31.63
2022-09-07T15:23:39.879Z,31.97
2022-09-07T15:26:07.415Z,32.12
2022-09-07T15:34:16.054Z,33.10
2022-09-07T15:36:51.224Z,33.30
2022-09-07T15:39:26.937Z,33.13
2022-09-07T15:41:54.488Z,33.17
2022-09-07T15:44:26.036Z,34.07
2022-09-07T15:49:49.201Z,34.53
2022-09-07T15:52:17.592Z,35.03
2022-09-07T15:54:44.703Z,34.45
2022-09-07T15:59:58.648Z,36.38
2022-09-07T16:05:12.798Z,36.63
2022-09-07T16:10:31.016Z,37.02
2022-09-07T16:13:03.237Z,37.28
2022-09-07T16:15:45.162Z,37.91
2022-09-07T16:18:16.524Z,38.48
2022-09-07T16:20:44.202Z,37.94
2022-09-07T16:23:14.040Z,38.15
2022-09-07T16:25:42.523Z,38.62
2022-09-07T16:28:09.552Z,39.21
2022-09-07T16:30:39.652Z,39.32
2022-09-07T16:33:06.635Z,39.73
2022-09-07T16:35:33.655Z,39.68
2022-09-07T16:40:47.591Z,41.17
2022-09-07T16:43:14.467Z,41.07
2022-09-07T16:48:28.283Z,42.84
2022-09-07T16:51:01.269Z,43.73
2022-09-07T16:53:29.267Z,45.94
2022-09-07T16:56:13.617Z,47.49
2022-09-07T16:58:45.395Z,45.82
2022-09-07T17:01:14.657Z,45.86
2022-09-07T17:03:41.717Z,46.01
2022-09-07T17:06:10.545Z,46.28
2022-09-07T17:08:38.275Z,46.76
2022-09-07T17:11:19.452Z,46.94
2022-09-07T17:13:46.716Z,47.91
2022-09-07T17:16:15.166Z,48.24
2022-09-07T17:21:31.286Z,49.60
2022-09-07T17:23:59.950Z,49.64
2022-09-07T17:26:27.455Z,49.57
2022-09-07T17:28:56.629Z,48.67
2022-09-07T17:34:13.654Z,50.54
2022-09-07T17:36:40.615Z,51.89
2022-09-07T17:39:16.846Z,51.69
2022-09-07T17:41:44.747Z,52.97
2022-09-07T17:44:11.709Z,54.03
2022-09-07T17:46:38.504Z,55.32
2022-09-07T17:49:08.241Z,55.57
2022-09-07T17:51:35.701Z,55.33
2022-09-07T17:54:11.453Z,56.02
2022-09-07T17:56:39.501Z,56.22
2022-09-07T18:01:56.327Z,56.78
2022-09-07T18:04:23.608Z,58.27
2022-09-07T18:06:51.167Z,59.64
2022-09-07T18:09:20.042Z,62.09
2022-09-07T18:11:48.678Z,62.95
2022-09-07T18:14:16.406Z,62.43
2022-09-07T18:16:44.158Z,62.63
2022-09-07T18:19:11.562Z,63.19
2022-09-07T18:21:39.341Z,62.49
2022-09-07T18:24:11.757Z,61.67
2022-09-07T18:26:40.345Z,59.29
2022-09-07T18:29:18.672Z,60.86
2022-09-07T18:31:53.921Z,63.13
2022-09-07T18:34:21.145Z,62.91
2022-09-07T18:36:48.072Z,62.16
2022-09-07T18:39:15.363Z,63.03
2022-09-07T18:41:42.595Z,63.62
2022-09-07T18:47:31.737Z,63.44
2022-09-07T18:49:59.262Z,61.96
2022-09-07T18:55:14.199Z,63.16
2022-09-07T18:57:46.184Z,65.65
2022-09-07T19:00:13.939Z,64.84
2022-09-07T19:02:41.285Z,65.14
2022-09-07T19:07:55.918Z,63.45
2022-09-07T19:10:23.272Z,62.41
2022-09-07T19:12:50.277Z,62.51
2022-09-07T19:15:17.424Z,62.70
2022-09-07T19:17:44.495Z,63.31
2022-09-07T19:20:11.732Z,63.38
2022-09-07T19:22:39.142Z,63.15
2022-09-07T19:25:06.629Z,63.41
2022-09-07T19:27:33.896Z,64.16
2022-09-07T19:30:01.154Z,64.74
2022-09-07T19:32:28.298Z,66.81
2022-09-07T19:34:55.685Z,68.50
2022-09-07T19:37:26.068Z,70.45
2022-09-07T19:39:56.200Z,70.87
2022-09-07T19:42:24.094Z,69.06
2022-09-07T19:44:52.025Z,66.78
2022-09-07T19:47:20.756Z,66.41
2022-09-07T19:49:47.765Z,67.08
2022-09-07T19:52:15.630Z,66.70
2022-09-07T19:54:42.606Z,66.37
2022-09-07T19:57:10.235Z,66.15
2022-09-07T19:59:37.236Z,64.27
2022-09-07T20:02:04.237Z,63.79
2022-09-07T20:04:31.243Z,64.58
2022-09-07T20:06:58.427Z,66.16
2022-09-07T20:09:25.983Z,66.46
2022-09-07T20:11:52.929Z,66.40
2022-09-07T20:14:20.489Z,67.04
2022-09-07T20:16:47.639Z,69.57
2022-09-07T20:19:15.178Z,68.23
2022-09-07T20:21:42.659Z,66.21
2022-09-07T20:24:12.001Z,64.71
2022-09-07T20:26:38.909Z,64.42
2022-09-07T20:31:53.834Z,64.70
2022-09-07T20:34:20.929Z,65.04
2022-09-07T20:36:51.298Z,65.62
2022-09-07T20:39:18.510Z,66.20
2022-09-07T20:41:45.698Z,66.52
2022-09-07T20:44:12.806Z,68.94
2022-09-07T20:46:39.748Z,69.10
2022-09-07T20:49:07.213Z,69.99
2022-09-07T20:51:34.171Z,70.04
2022-09-07T20:54:01.046Z,67.60
2022-09-07T20:56:28.567Z,66.88
2022-09-07T20:58:57.181Z,65.94
2022-09-07T21:01:24.295Z,65.72
2022-09-07T21:03:53.185Z,66.02
2022-09-07T21:06:20.694Z,66.68
2022-09-07T21:08:47.886Z,67.15
2022-09-07T21:11:17.268Z,67.38
2022-09-07T21:13:44.588Z,68.65
2022-09-07T21:16:13.067Z,71.02
2022-09-07T21:18:40.136Z,72.05
2022-09-07T21:21:22.657Z,69.65
2022-09-07T21:23:49.834Z,66.86
2022-09-07T21:26:20.559Z,66.04
2022-09-07T21:28:47.537Z,66.00
2022-09-07T21:31:14.445Z,66.57
2022-09-07T21:33:41.603Z,68.33
2022-09-07T21:36:10.492Z,69.16
2022-09-07T21:38:37.948Z,69.05
2022-09-07T21:41:15.346Z,68.21
2022-09-07T21:43:42.533Z,68.64
2022-09-07T21:46:11.469Z,68.56
2022-09-07T21:48:38.419Z,68.80
2022-09-07T21:51:05.395Z,69.51
2022-09-07T21:53:32.467Z,69.07
2022-09-07T21:56:01.351Z,67.75
2022-09-07T21:58:28.662Z,66.65
2022-09-07T22:00:56.679Z,66.66
2022-09-07T22:03:24.710Z,66.78
2022-09-07T22:05:51.638Z,67.17
2022-09-07T22:08:18.647Z,67.86
2022-09-07T22:10:45.844Z,68.42
2022-09-07T22:13:12.794Z,69.21
2022-09-07T22:15:40.886Z,69.05
2022-09-07T22:18:10.707Z,69.25
2022-09-07T22:20:37.848Z,70.39
2022-09-07T22:23:07.635Z,70.53
2022-09-07T22:25:35.293Z,68.55
2022-09-07T22:28:02.347Z,67.72
2022-09-07T22:30:29.380Z,67.62
2022-09-07T22:32:56.332Z,67.36
2022-09-07T22:35:23.727Z,67.45
2022-09-07T22:37:50.682Z,68.19
2022-09-07T22:40:17.707Z,69.13
2022-09-07T22:42:44.621Z,69.61
2022-09-07T22:45:11.494Z,69.63
2022-09-07T22:47:38.413Z,69.27
2022-09-07T22:50:06.033Z,69.87
2022-09-07T22:52:33.120Z,69.87
2022-09-07T22:54:59.942Z,67.88
2022-09-07T22:57:26.924Z,67.51
2022-09-07T22:59:53.851Z,68.05
2022-09-07T23:02:20.678Z,68.25
2022-09-07T23:04:47.602Z,69.40
2022-09-07T23:07:15.144Z,70.52
2022-09-07T23:09:42.048Z,71.32
2022-09-07T23:12:08.992Z,72.95
2022-09-07T23:14:36.242Z,75.52
2022-09-07T23:17:03.077Z,73.05
2022-09-07T23:19:29.984Z,70.69
2022-09-07T23:21:56.966Z,68.48
2022-09-07T23:24:24.015Z,68.61
2022-09-07T23:26:50.877Z,70.89
2022-09-07T23:29:18.311Z,71.31
2022-09-07T23:31:45.484Z,72.37
2022-09-07T23:34:12.439Z,72.76
2022-09-07T23:36:39.353Z,72.62
2022-09-07T23:39:06.158Z,72.64
2022-09-07T23:41:33.024Z,72.64
2022-09-07T23:44:00.697Z,72.65
2022-09-07T23:46:27.702Z,71.66
2022-09-07T23:48:54.738Z,71.05
2022-09-07T23:51:24.476Z,71.67
2022-09-07T23:53:52.574Z,71.81
2022-09-07T23:56:20.090Z,71.98
2022-09-07T23:58:46.991Z,72.60
